Terminal Aerodrome Forecast
Issued by NWS Sioux Falls, SD

Home | Current Version | Previous Version | Graphics & Text | Print | Product List | Glossary On
Versions: 1 2 3 4 5 6 7 8 9 10 11 12 13 14 15 16 17 18 19 20 21 22
000
FTUS43 KFSD 051001 AAB
TAFFSD
TAF AMD
KFSD 051001Z 0510/0606 18013KT P6SM BKN100
      TEMPO 0510/0512 3SM TSRA OVC080CB
     FM051400 17013G19KT P6SM BKN120
     FM051900 17018G26KT P6SM FEW040 SCT080
     FM060100 16014G19KT P6SM SCT040 BKN200=

USA.gov is the U.S. government's official web portal to all federal, state and local government web resources and services.